Time;durP1;ratioP1;P1;durP2;ratioP2;P2;SDS_P1;SDS_P2;PMS_P1;PMS_P2;Temp;Humidity;BMP_temperature;BMP_pressure;BME280_temperature;BME280_humidity;BME280_pressure;Samples;Min_cycle;Max_cycle;Signal;HPM_P1;HPM_P2
2021/12/13 00:02:05;;;;;;;;;11.00;11.00;;;;;11.47;98.26;102269.75;4953245;28;45855;-67
2021/12/13 00:04:33;;;;;;;;;15.50;14.00;;;;;11.38;98.95;102261.88;4953218;28;45559;-68
2021/12/13 00:07:12;;;;;;;;;12.00;11.50;;;;;11.36;98.27;102251.31;4972549;28;45575;-68
2021/12/13 00:09:42;;;;;;;;;15.75;12.75;;;;;11.46;98.17;102265.38;4957019;28;45344;-68
2021/12/13 00:12:09;;;;;;;;;11.50;11.25;;;;;11.36;98.69;102256.59;4953870;28;45512;-66
2021/12/13 00:14:47;;;;;;;;;10.00;10.00;;;;;11.42;98.17;102266.25;4975356;28;45934;-67
2021/12/13 00:17:20;;;;;;;;;20.50;15.00;;;;;11.45;98.33;102269.75;5034528;28;47272;-68
2021/12/13 00:19:55;;;;;;;;;16.50;16.25;;;;;11.36;97.90;102246.06;5027785;28;45516;-67
2021/12/13 00:22:24;;;;;;;;;23.00;16.75;;;;;11.46;97.94;102260.09;5034433;28;45813;-66
2021/12/13 00:25:00;;;;;;;;;14.00;13.50;;;;;11.45;97.99;102266.25;5034801;28;45366;-67
2021/12/13 00:27:27;;;;;;;;;21.75;15.00;;;;;11.47;98.00;102268.00;5034313;28;46579;-68
2021/12/13 00:29:59;;;;;;;;;15.50;15.00;;;;;11.47;97.79;102270.66;5033855;28;45865;-67
2021/12/13 00:33:04;;;;;;;;;14.25;14.25;;;;;11.47;97.81;102278.56;5034326;28;45498;-67
2021/12/13 00:35:41;;;;;;;;;12.00;9.50;;;;;11.11;97.27;102217.09;5015934;28;45758;-68
2021/12/13 00:38:10;;;;;;;;;10.00;9.00;;;;;11.45;97.43;102271.53;5034029;28;46514;-66
2021/12/13 00:40:42;;;;;;;;;11.00;11.00;;;;;11.42;97.64;102269.75;5039658;28;45737;-65
2021/12/13 00:43:26;;;;;;;;;11.75;11.50;;;;;11.34;97.28;102255.69;5054481;28;45479;-66
2021/12/13 00:46:02;;;;;;;;;11.00;11.00;;;;;11.45;97.46;102271.53;5051049;28;45668;-66
2021/12/13 00:48:31;;;;;;;;;14.50;12.25;;;;;11.43;96.95;102274.16;5013951;28;46666;-67
2021/12/13 00:51:06;;;;;;;;;18.25;12.75;;;;;11.41;97.13;102275.91;5014330;28;45694;-67
2021/12/13 00:53:35;;;;;;;;;12.00;12.00;;;;;11.43;97.09;102284.72;5014366;28;45751;-67
2021/12/13 00:56:39;;;;;;;;;15.00;13.25;;;;;11.42;97.10;102279.44;5026109;28;45532;-67
2021/12/13 00:59:08;;;;;;;;;12.75;12.00;;;;;11.38;97.24;102281.19;5038256;28;46320;-66
2021/12/13 01:01:35;;;;;;;;;12.50;12.50;;;;;11.39;97.24;102274.19;5035978;28;45490;-67
2021/12/13 01:04:07;;;;;;;;;12.75;9.25;;;;;11.36;97.19;102268.91;5034133;28;45849;-67
2021/12/13 01:06:45;;;;;;;;;14.25;11.00;;;;;11.42;96.84;102282.94;5034022;28;45479;-66
2021/12/13 01:09:38;;;;;;;;;15.00;13.75;;;;;11.41;96.38;102272.41;5033695;28;45439;-66
2021/12/13 01:12:08;;;;;;;;;11.75;11.75;;;;;11.38;97.10;102269.78;5031981;28;45443;-66
2021/12/13 01:14:42;;;;;;;;;16.50;13.50;;;;;11.37;97.33;102271.56;5033523;28;45445;-66
2021/12/13 01:17:25;;;;;;;;;14.25;12.25;;;;;11.35;97.19;102262.75;5033553;28;45487;-66
2021/12/13 01:20:00;;;;;;;;;12.75;10.25;;;;;11.26;95.99;102252.22;5032491;28;46615;-66
2021/12/13 01:22:47;;;;;;;;;10.50;9.00;;;;;11.33;96.61;102273.28;5033623;28;45468;-66
2021/12/13 01:25:24;;;;;;;;;15.50;9.00;;;;;11.33;96.09;102269.78;5033729;28;45502;-66
2021/12/13 01:27:58;;;;;;;;;13.50;10.50;;;;;11.28;96.95;102272.44;5033788;28;45750;-66
2021/12/13 01:30:32;;;;;;;;;13.50;12.00;;;;;11.29;97.24;102270.66;5033004;28;46440;-66
2021/12/13 01:33:00;;;;;;;;;16.25;9.25;;;;;11.32;97.08;102268.03;5033257;28;45463;-66
2021/12/13 01:35:29;;;;;;;;;12.00;12.00;;;;;11.29;96.97;102271.53;5033603;28;45423;-67
2021/12/13 01:38:02;;;;;;;;;8.50;8.50;;;;;11.33;96.61;102270.66;5033591;28;45526;-66
2021/12/13 01:40:31;;;;;;;;;9.75;9.75;;;;;11.23;96.64;102260.13;5033293;28;46778;-66
2021/12/13 01:43:03;;;;;;;;;15.00;11.00;;;;;11.32;97.33;102279.44;5033417;28;45667;-66
2021/12/13 01:45:34;;;;;;;;;10.75;9.00;;;;;11.32;96.51;102279.44;5033246;28;45471;-66
2021/12/13 01:48:00;;;;;;;;;12.50;11.00;;;;;11.28;97.17;102285.63;5033505;28;45737;-66
2021/12/13 01:50:43;;;;;;;;;16.25;11.50;;;;;11.30;97.66;102289.13;5032906;28;45534;-66
2021/12/13 01:53:08;;;;;;;;;9.25;9.25;;;;;11.27;97.06;102285.59;5032730;28;45914;-66
2021/12/13 01:55:38;;;;;;;;;13.50;11.25;;;;;11.32;97.95;102300.53;5033313;28;45826;-66
2021/12/13 02:01:11;;;;;;;;;9.50;9.25;;;;;11.31;97.53;102300.53;5052757;28;45440;-66
2021/12/13 02:03:39;;;;;;;;;11.25;11.00;;;;;11.29;98.09;102304.94;5053263;28;45357;-66
2021/12/13 02:06:05;;;;;;;;;14.50;9.75;;;;;11.25;98.25;102295.28;5053246;28;45507;-66
2021/12/13 02:08:33;;;;;;;;;14.25;11.75;;;;;11.17;98.16;102283.84;5047314;28;45483;-66
2021/12/13 02:10:58;;;;;;;;;11.25;11.25;;;;;11.27;97.86;102298.78;5033037;28;46402;-66
2021/12/13 02:13:38;;;;;;;;;10.00;10.00;;;;;11.09;98.70;102275.94;5032664;28;45764;-66
2021/12/13 02:18:59;;;;;;;;;9.50;8.25;;;;;11.00;98.31;102260.16;5033130;28;45457;-66
2021/12/13 02:21:31;;;;;;;;;11.00;11.00;;;;;11.26;98.81;102311.09;5032694;28;45625;-67
2021/12/13 02:24:02;;;;;;;;;10.75;10.75;;;;;11.22;98.81;102303.19;5035861;28;45496;-66
2021/12/13 02:26:29;;;;;;;;;12.00;10.25;;;;;11.17;99.33;102292.66;5031429;28;45812;-66
2021/12/13 02:29:05;;;;;;;;;13.50;10.00;;;;;11.21;98.82;102291.78;5028251;28;45473;-66
2021/12/13 02:31:35;;;;;;;;;11.50;10.00;;;;;11.17;99.23;102287.38;5035706;28;46311;-66
2021/12/13 02:34:07;;;;;;;;;14.00;12.00;;;;;11.21;98.03;102293.50;5036130;28;45412;-66
2021/12/13 02:36:38;;;;;;;;;15.00;13.25;;;;;11.19;98.92;102305.84;5036172;28;45777;-66
2021/12/13 02:39:11;;;;;;;;;11.25;10.00;;;;;11.11;99.41;102292.63;5036212;28;45596;-66
2021/12/13 02:41:39;;;;;;;;;17.25;16.25;;;;;11.15;100.00;102300.56;5035978;28;45572;-66
2021/12/13 02:44:38;;;;;;;;;12.25;11.50;;;;;11.15;100.00;102299.66;5036164;28;45883;-66
2021/12/13 02:47:36;;;;;;;;;8.75;8.75;;;;;11.24;98.70;102309.34;4974037;28;45577;-66
2021/12/13 02:50:08;;;;;;;;;12.25;11.00;;;;;11.21;99.24;102304.06;4974169;28;45796;-66
2021/12/13 02:52:34;;;;;;;;;11.50;10.25;;;;;10.95;99.60;102270.69;4973293;28;46872;-66
2021/12/13 02:55:06;;;;;;;;;13.25;11.25;;;;;10.96;99.60;102267.16;4973682;28;45572;-66
2021/12/13 02:57:36;;;;;;;;;13.75;8.75;;;;;11.12;99.03;102299.66;4973737;28;45575;-66
2021/12/13 03:00:13;;;;;;;;;12.75;10.50;;;;;11.22;99.34;102303.19;4981074;28;45651;-66
2021/12/13 03:02:42;;;;;;;;;8.25;8.25;;;;;11.19;98.95;102300.56;4976830;28;48194;-66
2021/12/13 03:05:14;;;;;;;;;9.75;9.00;;;;;11.13;99.11;102288.25;4973877;28;45908;-66
2021/12/13 03:07:43;;;;;;;;;10.00;10.00;;;;;11.14;99.15;102295.28;4973723;28;45839;-66
2021/12/13 03:10:23;;;;;;;;;11.50;9.00;;;;;11.11;98.81;102283.00;4973909;28;45413;-66
2021/12/13 03:12:49;;;;;;;;;13.50;11.00;;;;;11.10;97.96;102286.50;4973259;28;45768;-66
2021/12/13 03:15:20;;;;;;;;;8.25;8.25;;;;;11.15;98.00;102291.75;4973547;28;45659;-66
2021/12/13 03:17:52;;;;;;;;;13.75;11.00;;;;;11.12;99.23;102289.13;4973579;28;45993;-67
2021/12/13 03:20:43;;;;;;;;;9.00;9.00;;;;;11.11;99.65;102290.91;4973996;28;45459;-68
2021/12/13 03:23:31;;;;;;;;;9.75;9.00;;;;;11.14;98.39;102293.53;4976953;28;45536;-68
2021/12/13 03:26:38;;;;;;;;;13.50;10.25;;;;;11.14;98.52;102293.53;5020909;28;45802;-68
2021/12/13 03:29:15;;;;;;;;;11.75;10.25;;;;;11.10;98.50;102294.41;5035110;28;45524;-67
2021/12/13 03:31:54;;;;;;;;;11.00;10.50;;;;;11.09;99.11;102292.63;5035570;28;45856;-68
2021/12/13 03:34:25;;;;;;;;;10.25;9.00;;;;;11.12;98.18;102294.41;5034037;28;45509;-68
2021/12/13 03:37:09;;;;;;;;;15.00;10.25;;;;;11.07;98.97;102291.75;5035360;28;45900;-68
2021/12/13 03:39:39;;;;;;;;;8.75;8.75;;;;;10.80;99.17;102251.38;5035173;28;45497;-67
2021/12/13 03:42:12;;;;;;;;;11.25;9.00;;;;;10.99;99.09;102285.59;5029817;28;45513;-68
2021/12/13 03:44:46;;;;;;;;;9.00;8.75;;;;;10.97;98.81;102275.06;5015425;28;46804;-68
2021/12/13 03:47:19;;;;;;;;;14.00;10.50;;;;;11.06;98.59;102289.13;5032877;28;45552;-68
2021/12/13 03:49:52;;;;;;;;;13.00;10.00;;;;;11.08;98.72;102295.28;5035207;28;45533;-67
2021/12/13 03:52:22;;;;;;;;;16.75;13.50;;;;;11.07;99.16;102289.13;5035103;28;45706;-68
2021/12/13 03:54:52;;;;;;;;;11.00;9.50;;;;;11.07;98.94;102289.13;5034662;28;46148;-67
2021/12/13 03:57:18;;;;;;;;;10.25;10.25;;;;;11.09;98.18;102297.91;5034866;28;45408;-67
2021/12/13 03:59:46;;;;;;;;;13.25;11.25;;;;;11.06;98.68;102286.50;5032307;28;45607;-67
2021/12/13 04:02:24;;;;;;;;;13.75;10.75;;;;;10.94;98.78;102276.84;5015482;28;45505;-67
2021/12/13 04:04:57;;;;;;;;;17.00;12.00;;;;;11.06;99.21;102291.78;5014804;28;45725;-67
2021/12/13 04:07:25;;;;;;;;;13.25;11.00;;;;;11.06;99.17;102292.63;5014660;28;45795;-67
2021/12/13 04:09:55;;;;;;;;;12.75;12.25;;;;;11.02;98.31;102287.38;5015307;28;45487;-68
2021/12/13 04:12:30;;;;;;;;;17.25;15.75;;;;;11.03;99.22;102290.00;5015143;28;45473;-67
2021/12/13 04:15:01;;;;;;;;;16.50;13.00;;;;;11.04;98.31;102293.53;5019809;28;45464;-68
2021/12/13 04:20:23;;;;;;;;;18.25;15.25;;;;;10.96;99.64;102273.34;5041709;28;45405;-67
2021/12/13 04:22:55;;;;;;;;;15.50;12.25;;;;;11.05;98.31;102295.28;5054858;28;45391;-67
2021/12/13 04:25:29;;;;;;;;;14.00;14.00;;;;;10.96;98.54;102280.34;5042867;28;46601;-67
2021/12/13 04:28:00;;;;;;;;;15.25;14.00;;;;;11.01;98.45;102288.25;5034408;28;45438;-68
2021/12/13 04:30:33;;;;;;;;;16.67;15.33;;;;;11.00;99.16;102291.78;5034597;28;45804;-67
2021/12/13 04:33:03;;;;;;;;;17.50;16.00;;;;;10.89;99.11;102268.03;5034700;28;45722;-67
2021/12/13 04:35:31;;;;;;;;;20.25;12.25;;;;;11.02;98.29;102290.00;5034029;28;45978;-67
2021/12/13 04:38:00;;;;;;;;;19.00;15.75;;;;;10.98;98.15;102283.88;5034109;28;45710;-68
2021/12/13 04:40:29;;;;;;;;;24.00;17.75;;;;;10.91;98.66;102276.84;5034277;28;45515;-67
2021/12/13 04:43:06;;;;;;;;;21.75;18.00;;;;;10.96;98.28;102288.25;5026478;28;45333;-67
2021/12/13 04:45:33;;;;;;;;;22.75;16.25;;;;;10.95;99.06;102286.50;5033804;28;45463;-67
2021/12/13 04:48:12;;;;;;;;;16.50;12.00;;;;;10.92;98.01;102283.84;5034277;28;46085;-67
2021/12/13 04:50:47;;;;;;;;;23.00;19.67;;;;;10.92;98.82;102289.13;5034176;28;45888;-68
2021/12/13 04:53:24;;;;;;;;;20.00;18.00;;;;;10.91;98.85;102287.38;5033580;28;45827;-68
2021/12/13 04:55:52;;;;;;;;;21.25;17.25;;;;;10.91;99.56;102295.28;5033944;28;45850;-67
2021/12/13 04:58:18;;;;;;;;;20.00;18.50;;;;;10.83;99.07;102278.59;5033735;28;45416;-67
2021/12/13 05:01:02;;;;;;;;;18.25;17.75;;;;;10.93;98.77;102291.75;5052429;28;45621;-67
2021/12/13 05:03:42;;;;;;;;;20.00;17.00;;;;;10.66;98.53;102244.31;5054223;28;45573;-67
2021/12/13 05:06:14;;;;;;;;;22.33;22.00;;;;;10.89;98.64;102286.47;5043551;28;45845;-68
2021/12/13 05:08:40;;;;;;;;;28.67;24.00;;;;;10.90;98.26;102286.47;5033660;28;45475;-68
2021/12/13 05:11:10;;;;;;;;;25.33;20.00;;;;;10.86;98.01;102283.84;5033834;28;45837;-68
2021/12/13 05:13:39;;;;;;;;;26.67;22.67;;;;;10.81;98.45;102275.94;5033249;28;45473;-67
2021/12/13 05:16:10;;;;;;;;;24.67;22.00;;;;;10.86;97.87;102282.06;5019654;28;46807;-68
2021/12/13 05:18:50;;;;;;;;;25.00;21.00;;;;;10.86;97.64;102289.97;5033580;28;45708;-67
2021/12/13 05:21:32;;;;;;;;;47.67;37.67;;;;;10.83;97.71;102295.25;5033811;28;45832;-67
2021/12/13 05:24:05;;;;;;;;;23.33;20.67;;;;;10.84;97.57;102304.06;5013761;28;45346;-68
2021/12/13 05:26:50;;;;;;;;;28.00;21.33;;;;;10.82;98.57;102300.53;5013561;28;46268;-68
2021/12/13 05:29:36;;;;;;;;;26.33;22.67;;;;;10.80;97.77;102301.44;5013595;28;45810;-68
2021/12/13 05:32:04;;;;;;;;;23.00;18.25;;;;;10.82;97.53;102300.53;5013906;28;45442;-68
2021/12/13 05:34:34;;;;;;;;;24.00;21.67;;;;;10.68;97.50;102274.19;5013869;28;45930;-68
2021/12/13 05:37:03;;;;;;;;;29.33;23.67;;;;;10.72;97.48;102289.97;5013177;28;45723;-67
2021/12/13 05:39:29;;;;;;;;;23.33;21.33;;;;;10.69;98.24;102291.72;5013502;28;45374;-67
2021/12/13 05:41:59;;;;;;;;;29.33;27.33;;;;;10.70;98.75;102289.09;5005408;28;45851;-67
2021/12/13 05:44:33;;;;;;;;;27.67;23.33;;;;;10.73;97.80;102297.03;5013913;28;45454;-67
2021/12/13 05:47:03;;;;;;;;;22.33;21.00;;;;;10.51;98.35;102272.38;5013539;28;45517;-67
2021/12/13 05:49:33;;;;;;;;;30.67;27.33;;;;;10.69;98.78;102297.88;5013423;28;45487;-68
2021/12/13 05:52:24;;;;;;;;;50.67;37.67;;;;;10.70;97.81;102299.63;5013438;28;45807;-68
2021/12/13 05:54:57;;;;;;;;;31.67;30.00;;;;;10.69;98.10;102292.63;5013175;28;45581;-67
2021/12/13 05:57:31;;;;;;;;;28.33;26.00;;;;;10.69;97.55;102284.72;5014063;28;46475;-67
2021/12/13 06:00:18;;;;;;;;;30.67;28.67;;;;;10.68;97.79;102296.13;5028526;28;45383;-67
2021/12/13 06:03:02;;;;;;;;;37.33;28.67;;;;;10.66;98.76;102299.63;5037007;28;45574;-66
2021/12/13 06:05:41;;;;;;;;;28.00;24.00;;;;;10.66;97.97;102304.88;5037108;28;45775;-67
2021/12/13 06:08:18;;;;;;;;;28.33;26.33;;;;;10.55;98.14;102295.22;5036651;28;46590;-67
2021/12/13 06:10:47;;;;;;;;;33.00;24.33;;;;;10.67;98.22;102306.66;5036497;28;45461;-67
2021/12/13 06:13:23;;;;;;;;;34.33;31.33;;;;;10.64;97.89;102304.88;5036459;28;45767;-67
2021/12/13 06:15:49;;;;;;;;;33.33;28.33;;;;;10.67;97.90;102301.38;5034486;28;45572;-66
2021/12/13 06:18:16;;;;;;;;;31.33;25.67;;;;;10.66;97.79;102305.78;5035812;28;47436;-66
2021/12/13 06:21:22;;;;;;;;;38.33;32.00;;;;;10.60;98.69;102304.03;5035752;28;45508;-66
2021/12/13 06:23:48;;;;;;;;;34.00;27.33;;;;;10.63;97.89;102311.06;5035261;28;45434;-66
2021/12/13 06:26:14;;;;;;;;;35.00;28.00;;;;;10.62;98.09;102317.19;5036033;28;45675;-66
2021/12/13 06:28:43;;;;;;;;;33.33;29.00;;;;;10.60;98.10;102305.75;5036021;28;45585;-67
2021/12/13 06:31:17;;;;;;;;;32.33;29.00;;;;;10.63;98.32;102311.06;5032651;28;45845;-66
2021/12/13 06:33:53;;;;;;;;;42.33;32.67;;;;;10.54;97.97;102301.38;5035525;28;45700;-66
2021/12/13 06:36:28;;;;;;;;;34.33;29.00;;;;;10.59;98.65;102311.91;5035238;28;45437;-66
2021/12/13 06:38:58;;;;;;;;;36.67;30.00;;;;;10.65;98.92;102322.47;5035959;28;45761;-66
2021/12/13 06:41:26;;;;;;;;;32.33;27.67;;;;;10.66;98.22;102308.44;5035918;28;45794;-66
2021/12/13 06:43:58;;;;;;;;;35.33;31.00;;;;;10.66;97.98;102308.44;5036340;28;45425;-65
2021/12/13 06:46:23;;;;;;;;;34.33;31.00;;;;;10.64;98.11;102304.88;5036411;28;45555;-66
2021/12/13 06:49:26;;;;;;;;;43.33;34.00;;;;;10.63;97.81;102309.28;5035508;28;46143;-66
2021/12/13 06:51:58;;;;;;;;;36.00;29.33;;;;;10.62;98.31;102307.53;5035839;28;45428;-66
2021/12/13 06:54:53;;;;;;;;;39.00;31.67;;;;;10.63;97.97;102300.53;5035491;28;45411;-66
2021/12/13 06:57:21;;;;;;;;;33.33;29.00;;;;;10.67;97.38;102314.56;5035904;28;45436;-66
2021/12/13 06:59:59;;;;;;;;;39.00;32.00;;;;;10.63;97.89;102308.41;5045895;28;46298;-66
2021/12/13 07:02:36;;;;;;;;;28.33;24.33;;;;;10.66;97.38;102318.97;5035636;28;45766;-66
2021/12/13 07:05:10;;;;;;;;;32.00;28.00;;;;;10.65;96.92;102309.28;5035767;28;45486;-65
2021/12/13 07:07:55;;;;;;;;;34.00;29.00;;;;;10.62;97.43;102307.53;5035775;28;45568;-65
2021/12/13 07:10:28;;;;;;;;;36.33;31.33;;;;;10.62;97.21;102310.16;5034536;28;45918;-66
2021/12/13 07:12:58;;;;;;;;;32.00;26.00;;;;;10.55;97.53;102300.47;5035590;28;45770;-65
2021/12/13 07:15:35;;;;;;;;;29.33;26.00;;;;;10.61;96.46;102302.25;5034943;28;45524;-66
2021/12/13 07:18:12;;;;;;;;;55.00;43.67;;;;;10.59;97.37;102301.38;5035553;28;45795;-65
2021/12/13 07:21:04;;;;;;;;;39.00;33.00;;;;;10.60;97.23;102306.66;5035170;28;47322;-65
2021/12/13 07:23:56;;;;;;;;;54.33;43.67;;;;;10.61;96.86;102310.16;5035146;28;45823;-66
2021/12/13 07:26:32;;;;;;;;;46.67;32.33;;;;;10.59;97.28;102312.78;5034920;28;45394;-66
2021/12/13 07:28:59;;;;;;;;;35.00;29.67;;;;;10.55;96.68;102307.50;5035471;28;45572;-66
2021/12/13 07:31:26;;;;;;;;;50.67;39.33;;;;;10.56;98.12;102319.81;5035295;28;45845;-66
2021/12/13 07:33:52;;;;;;;;;32.67;30.67;;;;;10.50;97.06;102296.06;5034571;28;45531;-66
2021/12/13 07:36:25;;;;;;;;;30.33;30.00;;;;;10.61;97.63;102323.31;5034508;28;45929;-66
2021/12/13 07:39:08;;;;;;;;;40.67;31.00;;;;;10.58;97.03;102325.94;5035166;28;45754;-66
2021/12/13 07:41:45;;;;;;;;;28.33;27.67;;;;;10.61;97.33;102325.97;5034288;28;46555;-66
2021/12/13 07:44:41;;;;;;;;;41.00;31.00;;;;;10.62;96.84;102333.00;5034821;28;45377;-66
2021/12/13 07:47:10;;;;;;;;;38.67;30.67;;;;;10.60;96.99;102337.34;5035236;28;45561;-66
2021/12/13 07:49:42;;;;;;;;;38.00;33.00;;;;;10.59;96.67;102338.25;5035035;28;45481;-66
2021/12/13 07:52:09;;;;;;;;;50.00;39.00;;;;;10.56;96.62;102336.50;5034394;28;47082;-66
2021/12/13 07:54:38;;;;;;;;;36.33;29.67;;;;;10.48;96.74;102322.41;5034635;28;45458;-66
2021/12/13 07:57:14;;;;;;;;;44.00;35.67;;;;;10.52;96.86;102328.56;5034639;28;45425;-66
2021/12/13 07:59:40;;;;;;;;;31.67;27.33;;;;;10.48;97.12;102322.41;5044474;28;45788;-66
2021/12/13 08:02:25;;;;;;;;;32.00;26.33;;;;;10.59;96.25;102348.78;5036729;28;46015;-66
2021/12/13 08:04:59;;;;;;;;;35.67;26.33;;;;;10.56;96.80;102354.06;5023509;28;45884;-66
2021/12/13 08:07:24;;;;;;;;;35.33;29.33;;;;;10.58;96.47;102358.44;5033873;28;45572;-66
2021/12/13 08:10:13;;;;;;;;;30.67;27.00;;;;;10.57;96.71;102348.78;5035082;28;45699;-66
2021/12/13 08:12:42;;;;;;;;;28.67;25.67;;;;;10.59;96.28;102348.78;5033985;28;45700;-65
2021/12/13 08:15:08;;;;;;;;;32.67;30.00;;;;;10.59;96.69;102348.78;5034333;28;45937;-65
2021/12/13 08:17:42;;;;;;;;;30.00;27.33;;;;;10.60;96.97;102351.44;5034386;28;45392;-65
2021/12/13 08:20:12;;;;;;;;;29.67;26.33;;;;;10.54;96.35;102342.63;5033799;28;45504;-65
2021/12/13 08:22:44;;;;;;;;;33.67;26.33;;;;;10.59;96.40;102360.19;5034524;28;46556;-65
2021/12/13 08:25:26;;;;;;;;;40.00;33.00;;;;;10.67;96.66;102367.25;5034028;28;45911;-65
2021/12/13 08:28:06;;;;;;;;;27.67;24.67;;;;;10.43;96.71;102311.88;5034287;28;45414;-66
2021/12/13 08:30:53;;;;;;;;;33.33;28.33;;;;;10.72;96.34;102365.53;5016259;28;45501;-66
2021/12/13 08:33:24;;;;;;;;;30.00;26.67;;;;;10.66;96.36;102353.22;5033358;28;45576;-66
2021/12/13 08:35:56;;;;;;;;;25.67;23.67;;;;;10.70;96.11;102361.97;5033957;28;45933;-66
2021/12/13 08:38:36;;;;;;;;;32.67;30.67;;;;;10.76;96.26;102377.81;5034425;28;45761;-66
2021/12/13 08:41:20;;;;;;;;;29.33;24.33;;;;;10.77;96.10;102375.16;5034342;28;45941;-66
2021/12/13 08:44:04;;;;;;;;;35.00;26.00;;;;;10.58;95.68;102342.63;5030391;28;46087;-65
2021/12/13 08:46:52;;;;;;;;;30.00;27.00;;;;;10.82;96.05;102384.84;5032253;28;45797;-67
2021/12/13 08:49:29;;;;;;;;;26.67;24.33;;;;;10.85;95.75;102384.84;5033228;28;45561;-67
2021/12/13 08:52:05;;;;;;;;;32.67;27.67;;;;;10.79;95.83;102383.09;5025438;28;45539;-66
2021/12/13 08:54:51;;;;;;;;;31.33;25.00;;;;;10.86;95.38;102390.13;5026567;28;45541;-66
2021/12/13 08:57:47;;;;;;;;;34.00;30.67;;;;;10.87;94.88;102393.66;5027626;28;45478;-66
2021/12/13 09:00:12;;;;;;;;;33.67;28.00;;;;;10.88;95.11;102390.16;5042975;28;45455;-66
2021/12/13 09:02:42;;;;;;;;;30.00;27.33;;;;;10.86;95.36;102384.84;5025806;28;45695;-66
2021/12/13 09:05:13;;;;;;;;;37.00;29.00;;;;;10.88;94.58;102391.03;5033606;28;46805;-66
2021/12/13 09:08:07;;;;;;;;;34.33;30.00;;;;;10.85;95.07;102396.28;5033547;28;45940;-66
2021/12/13 09:10:41;;;;;;;;;36.67;32.00;;;;;10.87;95.26;102398.94;5023534;28;45472;-66
2021/12/13 09:13:08;;;;;;;;;36.67;29.00;;;;;10.86;94.98;102391.88;5033572;28;45378;-66
2021/12/13 09:15:35;;;;;;;;;42.33;29.33;;;;;10.94;94.91;102398.06;5032944;28;45402;-66
2021/12/13 09:18:01;;;;;;;;;28.67;25.00;;;;;10.90;94.62;102396.28;5033605;28;45447;-66
2021/12/13 09:20:43;;;;;;;;;26.67;20.00;;;;;10.97;93.65;102404.22;5026469;28;45825;-66
2021/12/13 09:23:23;;;;;;;;;34.33;24.67;;;;;10.74;94.55;102374.28;5027334;28;45777;-66
2021/12/13 09:26:02;;;;;;;;;27.33;23.67;;;;;10.95;94.23;102395.44;5032866;28;45799;-66
2021/12/13 09:28:35;;;;;;;;;51.67;40.33;;;;;10.90;94.64;102391.03;5033193;28;45404;-66
2021/12/13 09:31:15;;;;;;;;;36.00;30.67;;;;;11.02;94.46;102412.13;5032719;28;45661;-66
2021/12/13 09:33:50;;;;;;;;;28.67;22.33;;;;;10.97;93.93;102401.56;5032740;28;45953;-67
2021/12/13 09:36:23;;;;;;;;;35.67;28.00;;;;;11.06;93.43;102418.28;5033340;28;45488;-66
2021/12/13 09:38:58;;;;;;;;;32.00;30.33;;;;;11.06;93.64;102423.56;5030794;28;45565;-66
2021/12/13 09:41:42;;;;;;;;;29.33;23.67;;;;;11.06;93.79;102429.72;5032820;28;45488;-66
2021/12/13 09:44:11;;;;;;;;;29.67;27.33;;;;;11.07;93.18;102436.75;5033031;28;45769;-65
2021/12/13 09:46:43;;;;;;;;;35.67;29.33;;;;;10.99;94.08;102425.28;5035335;28;47427;-67
2021/12/13 09:49:29;;;;;;;;;33.67;32.00;;;;;11.01;93.34;102425.28;5036516;28;45552;-67
2021/12/13 09:52:00;;;;;;;;;28.33;27.67;;;;;11.12;93.58;102439.38;5037133;28;45223;-67
2021/12/13 09:54:31;;;;;;;;;33.33;27.33;;;;;11.11;93.23;102443.78;5013368;28;45221;-67
2021/12/13 09:57:02;;;;;;;;;31.33;28.00;;;;;11.12;93.58;102431.47;5024489;28;46607;-67
2021/12/13 09:59:34;;;;;;;;;39.00;30.00;;;;;11.12;93.27;102439.38;5036610;28;45611;-67
2021/12/13 10:02:02;;;;;;;;;35.00;29.00;;;;;11.10;92.79;102443.78;5035795;28;45700;-64
2021/12/13 10:04:40;;;;;;;;;31.00;29.33;;;;;11.17;93.96;102447.31;5035375;28;45485;-64
2021/12/13 10:07:15;;;;;;;;;32.67;27.00;;;;;11.20;93.24;102452.63;5036543;28;45537;-64
2021/12/13 10:09:48;;;;;;;;;36.33;32.00;;;;;11.24;93.56;102447.34;5036061;28;45390;-64
2021/12/13 10:12:22;;;;;;;;;26.67;20.67;;;;;11.25;93.00;102441.16;5036621;28;45370;-64
2021/12/13 10:14:52;;;;;;;;;32.00;27.33;;;;;11.23;92.33;102440.31;5036671;28;45361;-64
2021/12/13 10:17:22;;;;;;;;;26.00;25.00;;;;;11.23;93.01;102436.78;5036365;28;46721;-64
2021/12/13 10:19:56;;;;;;;;;33.33;25.67;;;;;11.25;92.99;102429.75;5036537;28;45341;-67
2021/12/13 10:22:26;;;;;;;;;26.67;21.33;;;;;11.26;92.45;102423.63;5037003;28;45270;-65
2021/12/13 10:24:56;;;;;;;;;27.00;20.00;;;;;11.25;91.39;102425.34;5036659;28;45401;-64
2021/12/13 10:27:23;;;;;;;;;29.33;28.67;;;;;11.26;91.51;102432.38;5036361;28;45274;-64
2021/12/13 10:29:53;;;;;;;;;32.00;27.67;;;;;11.26;92.67;102436.78;5036758;28;45357;-65
2021/12/13 10:32:29;;;;;;;;;32.67;23.67;;;;;11.29;92.05;102431.53;5036768;28;45350;-64
2021/12/13 10:35:03;;;;;;;;;27.33;24.33;;;;;11.35;92.40;102442.06;5036663;28;45428;-64
2021/12/13 10:37:35;;;;;;;;;28.00;22.67;;;;;11.39;92.04;102435.94;5036505;28;45639;-65
2021/12/13 10:40:13;;;;;;;;;36.00;28.00;;;;;11.30;92.15;102428.88;5036654;28;45422;-64
2021/12/13 10:42:46;;;;;;;;;31.00;24.00;;;;;11.42;92.23;102442.97;5036776;28;45342;-65
2021/12/13 10:45:18;;;;;;;;;31.67;28.67;;;;;11.39;91.94;102430.66;5036853;28;45536;-64
2021/12/13 10:47:47;;;;;;;;;24.00;21.00;;;;;11.44;91.32;102434.19;5039656;28;46032;-67
2021/12/13 10:50:18;;;;;;;;;25.33;23.00;;;;;11.47;91.50;102428.00;5040043;28;45424;-67
2021/12/13 10:52:48;;;;;;;;;25.33;24.00;;;;;11.50;91.71;102422.72;5039865;28;45233;-67
2021/12/13 10:55:23;;;;;;;;;24.33;21.00;;;;;11.53;91.94;102428.03;5038647;28;46431;-64
2021/12/13 10:57:49;;;;;;;;;26.67;23.67;;;;;11.56;91.79;102427.13;5040251;28;45642;-66
2021/12/13 11:00:24;;;;;;;;;23.00;21.00;;;;;11.56;91.41;102432.41;5034348;28;45389;-66
2021/12/13 11:03:01;;;;;;;;;34.00;26.67;;;;;11.53;91.62;102429.78;5055092;28;45383;-65
2021/12/13 11:05:28;;;;;;;;;24.67;22.33;;;;;11.48;91.65;102425.38;5030630;28;45418;-67
2021/12/13 11:07:54;;;;;;;;;26.67;23.00;;;;;11.56;92.16;102430.69;5009104;28;45939;-66
2021/12/13 11:10:25;;;;;;;;;22.00;20.33;;;;;11.54;92.19;102426.28;5049511;28;46052;-66
2021/12/13 11:12:54;;;;;;;;;32.00;22.25;;;;;11.64;91.85;102441.22;5055901;28;45709;-66
2021/12/13 11:15:26;;;;;;;;;30.67;26.67;;;;;11.63;92.35;102435.06;5054503;28;45361;-66
2021/12/13 11:17:54;;;;;;;;;36.67;31.00;;;;;11.58;91.84;102433.31;5055575;28;46274;-66
2021/12/13 11:20:29;;;;;;;;;35.33;28.67;;;;;11.55;91.57;102428.03;5055833;28;45393;-66
2021/12/13 11:22:55;;;;;;;;;25.00;20.67;;;;;11.53;91.61;102417.50;5038216;28;45574;-66
2021/12/13 11:25:29;;;;;;;;;34.00;24.33;;;;;11.57;91.91;102424.50;5035464;28;45849;-66
2021/12/13 11:27:55;;;;;;;;;24.00;19.67;;;;;11.60;92.42;102431.53;5035362;28;46860;-66
2021/12/13 11:30:26;;;;;;;;;37.00;30.00;;;;;11.65;92.23;102432.44;5015604;28;45527;-68
2021/12/13 11:32:57;;;;;;;;;25.33;22.00;;;;;11.66;91.74;102420.97;5022967;28;45700;-65
2021/12/13 11:35:54;;;;;;;;;32.67;29.00;;;;;11.67;91.64;102420.09;5035567;28;45743;-65
2021/12/13 11:38:42;;;;;;;;;23.00;20.00;;;;;11.66;92.37;102413.97;5035227;28;46172;-65
2021/12/13 11:41:11;;;;;;;;;31.00;25.00;;;;;11.69;91.61;102415.72;5033953;28;45384;-67
2021/12/13 11:43:57;;;;;;;;;52.33;41.33;;;;;11.70;92.01;102413.97;5035342;28;45475;-65
2021/12/13 11:46:41;;;;;;;;;22.67;17.67;;;;;11.71;91.84;102408.69;5048225;28;45475;-65
2021/12/13 11:49:54;;;;;;;;;27.00;23.00;;;;;11.63;92.14;102398.13;5034910;28;45490;-65
2021/12/13 11:52:58;;;;;;;;;30.67;25.00;;;;;11.71;91.74;102410.44;5026065;28;45549;-65